createdAt,value
2023-05-24T00:00:41.301Z,100.00
2023-05-24T00:03:15.011Z,100.00
2023-05-24T00:05:47.099Z,100.00
2023-05-24T00:08:19.348Z,100.00
2023-05-24T00:10:51.125Z,100.00
2023-05-24T00:13:23.093Z,100.00
2023-05-24T00:15:55.167Z,100.00
2023-05-24T00:18:26.881Z,100.00
2023-05-24T00:20:59.460Z,100.00
2023-05-24T00:23:32.111Z,100.00
2023-05-24T00:26:05.875Z,100.00
2023-05-24T00:28:37.790Z,100.00
2023-05-24T00:31:09.581Z,100.00
2023-05-24T00:33:41.267Z,100.00
2023-05-24T00:36:12.951Z,100.00
2023-05-24T00:38:44.649Z,100.00
2023-05-24T00:41:16.414Z,100.00
2023-05-24T00:43:48.592Z,100.00
2023-05-24T00:46:32.234Z,100.00
2023-05-24T00:49:04.283Z,100.00
2023-05-24T00:51:36.862Z,100.00
2023-05-24T00:54:09.679Z,100.00
2023-05-24T00:56:42.076Z,100.00
2023-05-24T00:59:14.680Z,100.00
2023-05-24T01:01:47.435Z,100.00
2023-05-24T01:04:20.611Z,100.00
2023-05-24T01:06:57.964Z,100.00
2023-05-24T01:10:06.351Z,100.00
2023-05-24T01:13:01.059Z,100.00
2023-05-24T01:15:54.167Z,100.00
2023-05-24T01:18:29.443Z,100.00
2023-05-24T01:21:27.904Z,100.00
2023-05-24T01:24:11.979Z,100.00
2023-05-24T01:26:56.214Z,100.00
2023-05-24T01:29:28.120Z,100.00
2023-05-24T01:32:02.890Z,100.00
2023-05-24T01:34:34.606Z,100.00
2023-05-24T01:37:06.712Z,100.00
2023-05-24T01:39:38.511Z,100.00
2023-05-24T01:42:27.821Z,100.00
2023-05-24T01:45:03.400Z,100.00
2023-05-24T01:47:47.475Z,100.00
2023-05-24T01:50:27.171Z,100.00
2023-05-24T01:53:02.148Z,100.00
2023-05-24T01:55:35.644Z,100.00
2023-05-24T01:58:08.249Z,100.00
2023-05-24T02:00:40.129Z,100.00
2023-05-24T02:03:12.224Z,100.00
2023-05-24T02:05:44.917Z,100.00
2023-05-24T02:08:17.054Z,100.00
2023-05-24T02:10:49.357Z,100.00
2023-05-24T02:13:23.076Z,100.00
2023-05-24T02:15:55.060Z,100.00
2023-05-24T02:18:27.217Z,100.00
2023-05-24T02:20:58.983Z,100.00
2023-05-24T02:23:32.049Z,100.00
2023-05-24T02:26:04.136Z,100.00
2023-05-24T02:28:36.309Z,100.00
2023-05-24T02:31:08.647Z,100.00
2023-05-24T02:33:40.825Z,100.00
2023-05-24T02:36:13.190Z,100.00
2023-05-24T02:38:44.787Z,100.00
2023-05-24T02:41:18.090Z,100.00
2023-05-24T02:43:50.341Z,100.00
2023-05-24T02:46:22.126Z,100.00
2023-05-24T02:48:54.154Z,100.00
2023-05-24T02:51:26.182Z,100.00
2023-05-24T02:53:57.865Z,100.00
2023-05-24T02:56:29.518Z,100.00
2023-05-24T02:59:01.490Z,100.00
2023-05-24T03:01:34.728Z,100.00
2023-05-24T03:04:06.623Z,100.00
2023-05-24T03:06:38.751Z,100.00
2023-05-24T03:09:10.757Z,100.00
2023-05-24T03:11:42.683Z,100.00
2023-05-24T03:14:15.159Z,100.00
2023-05-24T03:16:46.965Z,100.00
2023-05-24T03:19:18.701Z,100.00
2023-05-24T03:21:52.525Z,100.00
2023-05-24T03:24:25.952Z,100.00
2023-05-24T03:26:57.891Z,100.00
2023-05-24T03:29:29.747Z,100.00
2023-05-24T03:32:01.523Z,100.00
2023-05-24T03:34:33.506Z,100.00
2023-05-24T03:37:05.774Z,100.00
2023-05-24T03:39:37.589Z,100.00
2023-05-24T03:42:21.200Z,100.00
2023-05-24T03:44:52.908Z,100.00
2023-05-24T03:47:24.919Z,100.00
2023-05-24T03:49:57.272Z,100.00
2023-05-24T03:52:28.983Z,100.00
2023-05-24T03:55:00.924Z,100.00
2023-05-24T03:57:32.857Z,100.00
2023-05-24T04:00:06.448Z,100.00
2023-05-24T04:02:40.242Z,100.00
2023-05-24T04:05:14.562Z,100.00
2023-05-24T04:10:32.299Z,100.00
2023-05-24T04:13:04.173Z,100.00
2023-05-24T04:15:39.359Z,100.00
2023-05-24T04:18:12.472Z,100.00
2023-05-24T04:20:44.754Z,100.00
2023-05-24T04:23:16.910Z,100.00
2023-05-24T04:25:49.400Z,100.00
2023-05-24T04:28:22.478Z,100.00
2023-05-24T04:30:57.200Z,100.00
2023-05-24T04:33:29.106Z,100.00
2023-05-24T04:36:03.743Z,100.00
2023-05-24T04:38:36.395Z,100.00
2023-05-24T04:41:08.274Z,100.00
2023-05-24T04:43:40.901Z,100.00
2023-05-24T04:46:13.898Z,100.00
2023-05-24T04:48:45.627Z,100.00
2023-05-24T04:51:17.463Z,100.00
2023-05-24T04:53:49.230Z,100.00
2023-05-24T04:56:20.963Z,100.00
2023-05-24T04:58:52.566Z,100.00
2023-05-24T05:01:24.792Z,100.00
2023-05-24T05:03:56.817Z,100.00
2023-05-24T05:06:28.733Z,100.00
2023-05-24T05:09:00.853Z,100.00
2023-05-24T05:11:32.867Z,100.00
2023-05-24T05:14:04.845Z,100.00
2023-05-24T05:16:37.394Z,100.00
2023-05-24T05:19:09.702Z,100.00
2023-05-24T05:21:41.899Z,100.00
2023-05-24T05:24:17.192Z,100.00
2023-05-24T05:26:49.237Z,100.00
2023-05-24T05:29:23.515Z,100.00
2023-05-24T05:31:56.155Z,100.00
2023-05-24T05:34:28.111Z,100.00
2023-05-24T05:36:59.971Z,100.00
2023-05-24T05:39:32.066Z,100.00
2023-05-24T05:42:04.288Z,100.00
2023-05-24T05:44:36.408Z,100.00
2023-05-24T05:47:09.698Z,100.00
2023-05-24T05:49:42.116Z,100.00
2023-05-24T05:52:13.869Z,100.00
2023-05-24T05:54:45.958Z,100.00
2023-05-24T05:57:19.443Z,100.00
2023-05-24T05:59:51.823Z,100.00
2023-05-24T06:02:23.609Z,100.00
2023-05-24T06:04:56.074Z,100.00
2023-05-24T06:07:28.144Z,100.00
2023-05-24T06:09:59.823Z,100.00
2023-05-24T06:12:32.227Z,100.00
2023-05-24T06:15:05.665Z,100.00
2023-05-24T06:17:38.106Z,100.00
2023-05-24T06:20:12.331Z,100.00
2023-05-24T06:22:45.880Z,100.00
2023-05-24T06:25:19.339Z,100.00
2023-05-24T06:27:55.133Z,100.00
2023-05-24T06:30:28.394Z,100.00
2023-05-24T06:33:01.192Z,100.00
2023-05-24T06:35:32.945Z,100.00
2023-05-24T06:38:04.627Z,100.00
2023-05-24T06:40:36.712Z,100.00
2023-05-24T06:43:08.572Z,100.00
2023-05-24T06:45:40.887Z,100.00
2023-05-24T06:48:12.886Z,100.00
2023-05-24T06:50:45.938Z,100.00
2023-05-24T06:53:18.040Z,100.00
2023-05-24T06:55:49.766Z,100.00
2023-05-24T06:58:22.210Z,100.00
2023-05-24T07:00:54.480Z,100.00
2023-05-24T07:03:27.290Z,100.00
2023-05-24T07:05:59.423Z,100.00
2023-05-24T07:08:31.969Z,100.00
2023-05-24T07:11:04.068Z,100.00
2023-05-24T07:13:36.060Z,100.00
2023-05-24T07:16:08.094Z,100.00
2023-05-24T07:18:42.062Z,100.00
2023-05-24T07:21:14.036Z,100.00
2023-05-24T07:23:46.379Z,100.00
2023-05-24T07:26:18.255Z,100.00
2023-05-24T07:28:50.262Z,100.00
2023-05-24T07:31:23.112Z,100.00
2023-05-24T07:33:56.650Z,100.00
2023-05-24T07:36:31.605Z,100.00
2023-05-24T07:39:05.458Z,100.00
2023-05-24T07:41:38.097Z,100.00
2023-05-24T07:44:09.803Z,100.00
2023-05-24T07:46:42.253Z,100.00
2023-05-24T07:49:14.289Z,100.00
2023-05-24T07:51:46.613Z,100.00
2023-05-24T07:54:18.515Z,100.00
2023-05-24T07:56:50.482Z,100.00
2023-05-24T07:59:23.320Z,100.00
2023-05-24T08:01:55.222Z,100.00
2023-05-24T08:04:27.020Z,100.00
2023-05-24T08:06:59.610Z,100.00
2023-05-24T08:09:33.275Z,100.00
2023-05-24T08:12:07.771Z,100.00
2023-05-24T08:14:39.973Z,100.00
2023-05-24T08:17:11.657Z,100.00
2023-05-24T08:19:43.775Z,100.00
2023-05-24T08:22:16.141Z,100.00
2023-05-24T08:24:47.895Z,100.00
2023-05-24T08:27:19.707Z,100.00
2023-05-24T08:29:51.939Z,100.00
2023-05-24T08:32:25.058Z,100.00
2023-05-24T08:35:06.763Z,100.00
2023-05-24T08:37:33.380Z,100.00
2023-05-24T08:40:05.710Z,100.00
2023-05-24T08:42:41.142Z,100.00
2023-05-24T08:45:14.007Z,100.00
2023-05-24T08:47:45.975Z,100.00
2023-05-24T08:50:17.648Z,100.00
2023-05-24T08:52:51.206Z,100.00
2023-05-24T08:55:23.437Z,100.00
2023-05-24T08:57:56.552Z,99.45
2023-05-24T09:00:28.461Z,96.03
2023-05-24T09:03:00.473Z,93.98
2023-05-24T09:05:32.459Z,93.05
2023-05-24T09:08:05.053Z,92.56
2023-05-24T09:10:49.197Z,92.39
2023-05-24T09:13:10.836Z,92.49
2023-05-24T09:15:43.284Z,92.51
2023-05-24T09:18:15.404Z,91.86
2023-05-24T09:20:47.610Z,91.44
2023-05-24T09:23:20.851Z,92.72
2023-05-24T09:25:53.542Z,92.33
2023-05-24T09:28:26.208Z,90.54
2023-05-24T09:31:07.904Z,92.36
2023-05-24T09:33:39.650Z,92.45
2023-05-24T09:36:12.189Z,92.13
2023-05-24T09:38:44.053Z,91.99
2023-05-24T09:41:16.206Z,91.30
2023-05-24T09:43:51.069Z,92.24
2023-05-24T09:46:23.342Z,91.05
2023-05-24T09:48:59.371Z,91.34
2023-05-24T09:51:31.398Z,91.08
2023-05-24T09:54:03.665Z,91.14
2023-05-24T09:56:36.011Z,91.34
2023-05-24T09:59:10.860Z,89.98
2023-05-24T10:01:42.927Z,90.48
2023-05-24T10:04:15.016Z,89.72
2023-05-24T10:06:48.247Z,90.75
2023-05-24T10:09:21.038Z,91.04
2023-05-24T10:11:52.957Z,89.83
2023-05-24T10:14:24.826Z,89.37
2023-05-24T10:16:57.132Z,89.28
2023-05-24T10:19:29.317Z,88.96
2023-05-24T10:22:03.980Z,88.67
2023-05-24T10:24:39.184Z,88.77
2023-05-24T10:27:13.650Z,89.28
2023-05-24T10:29:58.961Z,90.56
2023-05-24T10:32:32.444Z,91.09
2023-05-24T10:35:04.995Z,92.23
2023-05-24T10:37:37.366Z,91.97
2023-05-24T10:40:11.268Z,92.31
2023-05-24T10:42:45.381Z,92.41
2023-05-24T10:45:36.076Z,91.58
2023-05-24T10:48:26.678Z,91.73
2023-05-24T10:51:01.019Z,91.93
2023-05-24T10:53:36.307Z,92.30
2023-05-24T10:56:09.956Z,92.05
2023-05-24T10:59:01.795Z,92.31
2023-05-24T11:01:35.136Z,93.05
2023-05-24T11:04:12.159Z,93.75
2023-05-24T11:07:09.446Z,94.75
2023-05-24T11:09:43.577Z,95.35
2023-05-24T11:12:18.897Z,94.73
2023-05-24T11:14:52.803Z,95.31
2023-05-24T11:17:24.995Z,95.91
2023-05-24T11:19:57.035Z,96.08
2023-05-24T11:22:28.871Z,97.03
2023-05-24T11:25:02.321Z,98.32
2023-05-24T11:27:35.492Z,98.44
2023-05-24T11:30:10.803Z,99.50
2023-05-24T11:32:42.932Z,100.00
2023-05-24T11:35:16.272Z,100.00
2023-05-24T11:37:47.976Z,100.00
2023-05-24T11:40:20.648Z,100.00
2023-05-24T11:42:53.378Z,100.00
2023-05-24T11:45:25.095Z,100.00
2023-05-24T11:47:57.579Z,99.83
2023-05-24T11:53:21.369Z,100.00
2023-05-24T11:55:54.774Z,99.28
2023-05-24T12:01:29.926Z,95.98
2023-05-24T12:12:56.106Z,95.54
2023-05-24T12:21:13.915Z,94.04
2023-05-24T12:23:48.343Z,92.78
2023-05-24T12:26:21.104Z,91.57
2023-05-24T12:28:57.208Z,91.24
2023-05-24T12:31:29.351Z,90.82
2023-05-24T12:34:01.870Z,92.01
2023-05-24T12:48:17.137Z,94.67
2023-05-24T12:53:43.495Z,92.97
2023-05-24T12:56:15.722Z,92.83
2023-05-24T12:58:47.602Z,91.81
2023-05-24T13:01:19.707Z,91.12
2023-05-24T13:03:52.469Z,91.49
2023-05-24T13:06:24.180Z,89.87
2023-05-24T13:08:56.429Z,89.28
2023-05-24T13:11:30.072Z,87.08
2023-05-24T13:14:02.639Z,87.05
2023-05-24T13:16:44.399Z,87.27
2023-05-24T13:22:09.244Z,87.73
2023-05-24T13:27:32.579Z,85.59
2023-05-24T13:30:06.006Z,85.84
2023-05-24T13:32:39.765Z,85.74
2023-05-24T13:35:12.222Z,85.33
2023-05-24T13:37:44.477Z,85.03
2023-05-24T13:40:16.323Z,85.38
2023-05-24T13:42:48.041Z,84.58
2023-05-24T13:45:19.960Z,85.06
2023-05-24T13:47:53.806Z,85.67
2023-05-24T13:50:26.919Z,85.50
2023-05-24T13:53:01.587Z,86.03
2023-05-24T13:55:35.706Z,86.50
2023-05-24T13:58:08.031Z,86.26
2023-05-24T14:00:40.130Z,87.05
2023-05-24T14:03:13.235Z,88.45
2023-05-24T14:05:45.452Z,89.37
2023-05-24T14:08:17.945Z,89.92
2023-05-24T14:10:50.207Z,90.46
2023-05-24T14:13:58.895Z,90.93
2023-05-24T14:15:56.292Z,89.34
2023-05-24T14:18:28.197Z,88.42
2023-05-24T14:20:59.863Z,87.73
2023-05-24T14:23:34.963Z,87.13
2023-05-24T14:26:06.909Z,86.74
2023-05-24T14:28:39.228Z,87.20
2023-05-24T14:31:11.455Z,87.54
2023-05-24T14:33:43.695Z,87.31
2023-05-24T14:36:15.330Z,87.11
2023-05-24T14:38:47.453Z,87.42
2023-05-24T14:41:19.300Z,87.79
2023-05-24T14:43:51.360Z,88.09
2023-05-24T14:46:23.548Z,87.80
2023-05-24T14:48:55.422Z,87.00
2023-05-24T14:51:27.233Z,87.03
2023-05-24T14:53:58.997Z,86.93
2023-05-24T14:56:30.779Z,87.85
2023-05-24T14:59:03.816Z,87.67
2023-05-24T15:01:36.977Z,87.29
2023-05-24T15:04:09.371Z,87.06
2023-05-24T15:06:41.504Z,87.21
2023-05-24T15:09:13.621Z,87.56
2023-05-24T15:11:45.823Z,88.09
2023-05-24T15:14:17.978Z,88.70
2023-05-24T15:17:00.461Z,88.84
2023-05-24T15:22:29.066Z,88.71
2023-05-24T15:27:57.278Z,88.18
2023-05-24T15:30:28.935Z,87.83
2023-05-24T15:35:54.660Z,86.24
2023-05-24T15:49:59.783Z,82.93
2023-05-24T15:52:35.958Z,82.85
2023-05-24T15:58:00.293Z,81.28
2023-05-24T16:06:16.897Z,83.42
2023-05-24T16:14:43.168Z,86.03
2023-05-24T16:17:22.006Z,87.20
2023-05-24T16:19:54.503Z,88.12
2023-05-24T16:31:04.195Z,92.58
2023-05-24T16:53:44.706Z,100.00
2023-05-24T17:13:36.394Z,100.00
2023-05-24T17:16:08.709Z,100.00
2023-05-24T17:18:40.979Z,100.00
2023-05-24T17:21:13.216Z,100.00
2023-05-24T17:23:45.478Z,100.00
2023-05-24T17:26:17.636Z,100.00
2023-05-24T17:28:49.550Z,100.00
2023-05-24T17:31:21.896Z,100.00
2023-05-24T17:33:54.887Z,100.00
2023-05-24T17:36:27.144Z,100.00
2023-05-24T17:38:59.213Z,100.00
2023-05-24T17:41:32.510Z,100.00
2023-05-24T17:44:06.353Z,100.00
2023-05-24T17:46:41.280Z,100.00
2023-05-24T17:49:15.057Z,100.00
2023-05-24T17:51:47.054Z,100.00
2023-05-24T17:54:19.022Z,100.00
2023-05-24T17:56:50.850Z,100.00
2023-05-24T17:59:22.978Z,100.00
2023-05-24T18:01:55.438Z,100.00
2023-05-24T18:04:27.840Z,100.00
2023-05-24T18:06:59.830Z,100.00
2023-05-24T18:09:31.792Z,100.00
2023-05-24T18:12:04.108Z,100.00
2023-05-24T18:14:36.284Z,100.00
2023-05-24T18:17:09.778Z,100.00
2023-05-24T18:19:42.353Z,100.00
2023-05-24T18:22:14.432Z,100.00
2023-05-24T18:24:48.972Z,100.00
2023-05-24T18:27:21.081Z,100.00
2023-05-24T18:29:57.179Z,100.00
2023-05-24T18:32:29.742Z,100.00
2023-05-24T18:35:01.848Z,100.00
2023-05-24T18:37:33.661Z,100.00
2023-05-24T18:40:06.446Z,100.00
2023-05-24T18:42:38.520Z,100.00
2023-05-24T18:45:12.145Z,100.00
2023-05-24T18:47:46.389Z,100.00
2023-05-24T18:50:22.857Z,100.00
2023-05-24T18:52:54.366Z,100.00
2023-05-24T18:55:26.856Z,100.00
2023-05-24T18:57:59.145Z,100.00
2023-05-24T19:00:31.236Z,100.00
2023-05-24T19:03:03.450Z,100.00
2023-05-24T19:05:35.818Z,100.00
2023-05-24T19:08:08.230Z,100.00
2023-05-24T19:10:41.456Z,100.00
2023-05-24T19:13:16.319Z,100.00
2023-05-24T19:15:48.403Z,100.00
2023-05-24T19:18:20.619Z,100.00
2023-05-24T19:20:52.648Z,100.00
2023-05-24T19:23:25.512Z,100.00
2023-05-24T19:25:57.739Z,100.00
2023-05-24T19:28:30.162Z,100.00
2023-05-24T19:31:02.566Z,100.00
2023-05-24T19:33:35.964Z,100.00
2023-05-24T19:36:10.563Z,100.00
2023-05-24T19:38:42.669Z,100.00
2023-05-24T19:41:15.133Z,100.00
2023-05-24T19:43:46.922Z,100.00
2023-05-24T19:46:18.875Z,100.00
2023-05-24T19:48:50.755Z,100.00
2023-05-24T19:51:23.060Z,100.00
2023-05-24T19:53:55.678Z,100.00
2023-05-24T19:56:27.701Z,100.00
2023-05-24T19:58:59.601Z,100.00
2023-05-24T20:01:31.849Z,100.00
2023-05-24T20:04:04.037Z,100.00
2023-05-24T20:06:37.911Z,100.00
2023-05-24T20:09:10.142Z,100.00
2023-05-24T20:11:42.126Z,100.00
2023-05-24T20:14:14.140Z,100.00
2023-05-24T20:16:46.176Z,100.00
2023-05-24T20:19:19.288Z,100.00
2023-05-24T20:21:51.001Z,100.00
2023-05-24T20:24:22.749Z,100.00
2023-05-24T20:26:54.428Z,100.00
2023-05-24T20:29:26.474Z,100.00
2023-05-24T20:31:58.551Z,100.00
2023-05-24T20:34:30.980Z,100.00
2023-05-24T20:37:03.185Z,100.00
2023-05-24T20:39:35.215Z,100.00
2023-05-24T20:42:08.406Z,100.00
2023-05-24T20:44:40.157Z,100.00
2023-05-24T20:47:12.278Z,100.00
2023-05-24T20:49:44.117Z,100.00
2023-05-24T20:52:16.485Z,100.00
2023-05-24T20:54:48.345Z,100.00
2023-05-24T20:57:20.173Z,100.00
2023-05-24T20:59:52.242Z,100.00
2023-05-24T21:02:24.484Z,100.00
2023-05-24T21:04:57.104Z,100.00
2023-05-24T21:07:28.942Z,100.00
2023-05-24T21:10:00.869Z,100.00
2023-05-24T21:12:33.020Z,100.00
2023-05-24T21:15:04.833Z,100.00
2023-05-24T21:17:36.524Z,100.00
2023-05-24T21:20:09.173Z,100.00
2023-05-24T21:22:41.729Z,100.00
2023-05-24T21:25:13.569Z,100.00
2023-05-24T21:27:45.397Z,100.00
2023-05-24T21:30:17.073Z,100.00
2023-05-24T21:32:49.313Z,100.00
2023-05-24T21:35:21.246Z,100.00
2023-05-24T21:37:52.819Z,100.00
2023-05-24T21:40:24.799Z,100.00
2023-05-24T21:42:56.331Z,100.00
2023-05-24T21:45:28.262Z,100.00
2023-05-24T21:48:00.635Z,100.00
2023-05-24T21:50:32.865Z,100.00
2023-05-24T21:53:04.769Z,100.00
2023-05-24T21:55:37.314Z,100.00
2023-05-24T21:58:09.136Z,100.00
2023-05-24T22:00:40.908Z,100.00
2023-05-24T22:03:12.564Z,100.00
2023-05-24T22:05:44.775Z,100.00
2023-05-24T22:08:16.885Z,100.00
2023-05-24T22:10:48.802Z,100.00
2023-05-24T22:13:20.616Z,100.00
2023-05-24T22:15:52.292Z,100.00
2023-05-24T22:18:25.957Z,100.00
2023-05-24T22:20:59.614Z,100.00
2023-05-24T22:23:31.333Z,100.00
2023-05-24T22:26:03.353Z,100.00
2023-05-24T22:28:53.976Z,100.00
2023-05-24T22:31:28.373Z,100.00
2023-05-24T22:34:02.387Z,100.00
2023-05-24T22:36:34.687Z,100.00
2023-05-24T22:39:07.302Z,100.00
2023-05-24T22:41:39.134Z,100.00
2023-05-24T22:44:11.266Z,100.00
2023-05-24T22:46:42.944Z,100.00
2023-05-24T22:49:16.773Z,100.00
2023-05-24T22:51:50.936Z,100.00
2023-05-24T22:54:22.768Z,100.00
2023-05-24T22:56:54.872Z,100.00
2023-05-24T22:59:26.839Z,100.00
2023-05-24T23:01:59.104Z,100.00
2023-05-24T23:04:31.269Z,100.00
2023-05-24T23:07:03.152Z,100.00
2023-05-24T23:09:35.306Z,100.00
2023-05-24T23:12:08.515Z,100.00
2023-05-24T23:14:42.218Z,100.00
2023-05-24T23:17:14.338Z,100.00
2023-05-24T23:19:47.862Z,100.00
2023-05-24T23:22:19.625Z,100.00
2023-05-24T23:24:51.306Z,100.00
2023-05-24T23:27:23.988Z,100.00
2023-05-24T23:29:55.812Z,100.00
2023-05-24T23:32:28.540Z,100.00
2023-05-24T23:35:00.259Z,100.00
2023-05-24T23:37:32.278Z,100.00
2023-05-24T23:40:05.851Z,100.00
2023-05-24T23:42:37.668Z,100.00
2023-05-24T23:45:09.993Z,100.00
2023-05-24T23:47:42.135Z,100.00
2023-05-24T23:50:15.682Z,100.00
2023-05-24T23:52:47.801Z,100.00
2023-05-24T23:55:19.724Z,100.00
2023-05-24T23:57:52.351Z,100.00
